Current Weather

Hall Beach

Hall Beach, Canada (CYUX)

Report from: Sunday, July 14, 2024 5:00 AM EDT
Current time: Sunday, July 14, 2024 5:56 AM EDT

Nearby weather – Weather history – Daily summaries
Weather forecast

Temperature5.0°C (41.0°F)
Wind chill0.1°C (32.2°F)
Dew point4.0°C (39.2°F)
Winds 16 kts (8.2 m/s, 18.4 mph) Northwest (310°)
Wind gusts 21 kts (10.8 m/s, 24.2 mph)
Visibility9 mi. (14.5 km)
Clouds Sky clear
Altimeter29.81 in.Hg (1009 mB)
Relative humidity93 %
Density altitude-965 ft. (-294 m)
Sea-level pressure101.0 kPa (1010 mB, 29.81 in.Hg)
Remarks Fully automated report
Flight conditions Visual Meteorological Conditions
Raw dataCYUX 140900Z AUTO 31016G21KT 9SM CLR 05/04 A2981 RMK SLP096
An error has occurred. This application may no longer respond until reloaded. Reload 🗙